San Antonio International Airport San Antonio US
ICAO: KSAT
IATA: SAT
Category: Large
Scheduled Services: Yes

Elevation: 809 ft
TransAlt. 18000 ft.

Airport Communications:
APP/DEP:118.05
ATIS:118.9
CLNC DEL:126.7
GND:121.9
SAN ANGELO RDO:122.2
TWR:119.8
UNICOM:122.95

KSAT Zoom In..

If you have problems with the map follow the link
https://www.worldairports.se/pages/airport.php?
ICAO=KSAT

Runways:

(A) RW 04 length 8505 ft width 150 ft
ILS 109.70 / hdg 33

(B) RW 12L length 5519 ft width 100 ft
---- / hdg 124

(C) RW 12R length 8502 ft width 150 ft
ILS 110.90 / hdg 124

(D) RW 22 length 8505 ft width 150 ft
---- / hdg 213

(E) RW 30L length 8502 ft width 150 ft
ILS 110.90 / hdg 304

(F) RW 30R length 5519 ft width 100 ft
---- / hdg 304

Location; KSAT
Day. 06 / Time. 12.10 Zulu
* Altimeter: 30.10
* Temperature: 15° c. 59°f.
* Wind from: 330° Speed 12 kn.
Dewpoint: 10° c.
Visibility: 10 Statute Miles.
Clouds: Broken 25000 ft.

KSAT 061210Z 33012KT 10SM BKN250 15/10 A3010 RMK AO2 WSHFT 06 FROPA T01500100


Wind From 330°
Speed 12 kn.

 
 
jpsmedia worldairports.se 2019   terms of use